Airfield :
LOGIN :

Register | Disclaimer

   EN    FR    IT 

 










Legend :    VFR   Marginal VFR   IFR   Intensive IFR   Very Intensive IFR
Visi :
Ceiling :
>= 8 km
>= 3000ft
5 to 8 km
1000 to 3000 ft
1500m to 5 km
500 to 1000 ft
800 to 1500m
200 to 500 ft
< 800m
< 200 ft
Symbols :   Thunderstorms  Fog  Heavy snow  Heavy precipitations  Wind > 20 kt
SIGMETs :     Misc.  Thunderstorms  Icing  Turbulence  Mountain Waves  Volcanic Ashes







- Airport Elevation : 935 ft


EBFS - Florennes

CURRENT METAR :
  • 231344Z 20013KT 9999 -RA FEW013 SCT020 BKN040 08/04 Q1021 WHT WHT BECMG GRN

EXPIRED METARs :
  • 231342Z 20012KT 9999 -RA FEW013 BKN040 08/04 Q1021 BLU WHT BECMG GRN
  • 231325Z 20015KT 9999 FEW016 SCT022 BKN040 08/04 Q1021 WHT WHT BECMG GRN
  • 231255Z 20015KT 9999 FEW016 SCT022 BKN240 08/04 Q1021 WHT WHT BECMG GRN
  • 231252Z 20015KT 9999 FEW016 SCT022 BKN240 08/04 Q1022 WHT WHT BECMG GRN
  • 231225Z 20015KT 9999 FEW016 SCT022 BKN260 08/04 Q1022 WHT WHT TEMPO BLU
  • 231155Z 21018KT 9999 FEW016 SCT022 BKN260 08/03 Q1022 WHT WHT TEMPO BLU
  • 231055Z 21011KT 9999 FEW014 BKN028 07/04 Q1023 BLU BLU BECMG WHT
  • 231025Z 20009KT 9999 FEW012 BKN028 07/04 Q1023 BLU BLU TEMPO WHT

TAF TAF EBFS
Valid from the 23 at 13:00 until the 23 at 22:00 UTC


231141Z 2313/2322 27013KT 9999 SCT010 BKN014
BECMG 2313/2315 21015G27KT 3000 -RADZ SCT004 BKN006
TEMPO 2317/2322 1500 -DZRA SCT002 BKN004
PROB30
TEMPO 2318/2322 0600 DZ SCT001 BKN002
No reported NOTAMs for that airfield.



MET'MAP, your aeronautical weather chart ! - Copyright ORBIFLY December 2007 - Disclaimer

ORBIFLY MET'MAP TEAM :

Programming & Development : Alexandra Zaïnal
Concept & Development : Baudouin d'Aumeries
Co-Development & Prog : Marc-Olivier Méhu
Technical & hardware support : Manuel Goepfert

Contact : metmap@orbifly.com




SOURCES & CREDITS :

   NOAA